sensor_id;sensor_type;location;lat;lon;timestamp;P1;durP1;ratioP1;P2;durP2;ratioP2
3689;SDS011;1861;50.240;8.596;2023-04-24T00:01:43;0.87;;;0.80;;
3689;SDS011;1861;50.240;8.596;2023-04-24T00:04:12;1.47;;;1.20;;
3689;SDS011;1861;50.240;8.596;2023-04-24T00:06:43;3.93;;;0.83;;
3689;SDS011;1861;50.240;8.596;2023-04-24T00:09:15;0.80;;;0.70;;
3689;SDS011;1861;50.240;8.596;2023-04-24T00:11:43;2.97;;;0.87;;
3689;SDS011;1861;50.240;8.596;2023-04-24T00:14:12;0.77;;;0.77;;
3689;SDS011;1861;50.240;8.596;2023-04-24T00:16:40;1.20;;;0.80;;
3689;SDS011;1861;50.240;8.596;2023-04-24T00:19:08;1.60;;;0.97;;
3689;SDS011;1861;50.240;8.596;2023-04-24T00:21:39;0.87;;;0.80;;
3689;SDS011;1861;50.240;8.596;2023-04-24T00:24:07;1.20;;;0.90;;
3689;SDS011;1861;50.240;8.596;2023-04-24T00:26:36;0.93;;;0.80;;
3689;SDS011;1861;50.240;8.596;2023-04-24T00:29:04;2.83;;;1.00;;
3689;SDS011;1861;50.240;8.596;2023-04-24T00:31:32;1.30;;;0.80;;
3689;SDS011;1861;50.240;8.596;2023-04-24T00:34:01;1.53;;;1.10;;
3689;SDS011;1861;50.240;8.596;2023-04-24T00:36:29;1.63;;;0.90;;
3689;SDS011;1861;50.240;8.596;2023-04-24T00:39:00;1.13;;;1.00;;
3689;SDS011;1861;50.240;8.596;2023-04-24T00:41:28;2.97;;;1.03;;
3689;SDS011;1861;50.240;8.596;2023-04-24T00:43:57;0.90;;;0.80;;
3689;SDS011;1861;50.240;8.596;2023-04-24T00:46:25;0.90;;;0.80;;
3689;SDS011;1861;50.240;8.596;2023-04-24T00:48:54;1.63;;;0.90;;
3689;SDS011;1861;50.240;8.596;2023-04-24T00:51:23;1.47;;;0.70;;
3689;SDS011;1861;50.240;8.596;2023-04-24T00:53:51;2.10;;;0.70;;
3689;SDS011;1861;50.240;8.596;2023-04-24T00:56:21;0.80;;;0.70;;
3689;SDS011;1861;50.240;8.596;2023-04-24T00:58:49;1.03;;;0.70;;
3689;SDS011;1861;50.240;8.596;2023-04-24T01:01:18;5.57;;;0.90;;
3689;SDS011;1861;50.240;8.596;2023-04-24T01:03:51;0.70;;;0.70;;
3689;SDS011;1861;50.240;8.596;2023-04-24T01:06:21;1.20;;;0.67;;
3689;SDS011;1861;50.240;8.596;2023-04-24T01:08:52;1.03;;;0.80;;
3689;SDS011;1861;50.240;8.596;2023-04-24T01:11:23;1.67;;;0.70;;
3689;SDS011;1861;50.240;8.596;2023-04-24T01:13:52;1.60;;;0.97;;
3689;SDS011;1861;50.240;8.596;2023-04-24T01:16:20;3.13;;;0.93;;
3689;SDS011;1861;50.240;8.596;2023-04-24T01:18:48;1.60;;;0.90;;
3689;SDS011;1861;50.240;8.596;2023-04-24T01:21:18;11.93;;;2.00;;
3689;SDS011;1861;50.240;8.596;2023-04-24T01:23:51;1.30;;;1.00;;
3689;SDS011;1861;50.240;8.596;2023-04-24T01:26:19;2.30;;;1.00;;
3689;SDS011;1861;50.240;8.596;2023-04-24T01:28:47;1.10;;;0.80;;
3689;SDS011;1861;50.240;8.596;2023-04-24T01:31:16;1.33;;;0.90;;
3689;SDS011;1861;50.240;8.596;2023-04-24T01:33:44;1.63;;;0.90;;
3689;SDS011;1861;50.240;8.596;2023-04-24T01:36:12;0.80;;;0.70;;
3689;SDS011;1861;50.240;8.596;2023-04-24T01:38:41;2.30;;;0.90;;
3689;SDS011;1861;50.240;8.596;2023-04-24T01:41:10;1.43;;;0.80;;
3689;SDS011;1861;50.240;8.596;2023-04-24T01:43:38;3.17;;;1.00;;
3689;SDS011;1861;50.240;8.596;2023-04-24T01:46:07;1.70;;;0.90;;
3689;SDS011;1861;50.240;8.596;2023-04-24T01:48:35;1.93;;;0.90;;
3689;SDS011;1861;50.240;8.596;2023-04-24T01:51:03;1.10;;;0.90;;
3689;SDS011;1861;50.240;8.596;2023-04-24T01:53:31;1.00;;;0.90;;
3689;SDS011;1861;50.240;8.596;2023-04-24T01:55:59;1.00;;;0.80;;
3689;SDS011;1861;50.240;8.596;2023-04-24T01:58:30;4.70;;;0.90;;
3689;SDS011;1861;50.240;8.596;2023-04-24T02:00:59;1.17;;;1.03;;
3689;SDS011;1861;50.240;8.596;2023-04-24T02:03:27;5.23;;;1.87;;
3689;SDS011;1861;50.240;8.596;2023-04-24T02:05:57;3.60;;;0.80;;
3689;SDS011;1861;50.240;8.596;2023-04-24T02:08:25;3.00;;;1.03;;
3689;SDS011;1861;50.240;8.596;2023-04-24T02:10:53;1.10;;;1.00;;
3689;SDS011;1861;50.240;8.596;2023-04-24T02:13:21;1.50;;;1.10;;
3689;SDS011;1861;50.240;8.596;2023-04-24T02:15:50;6.57;;;0.90;;
3689;SDS011;1861;50.240;8.596;2023-04-24T02:18:18;4.30;;;1.10;;
3689;SDS011;1861;50.240;8.596;2023-04-24T02:20:49;2.10;;;1.10;;
3689;SDS011;1861;50.240;8.596;2023-04-24T02:23:17;1.93;;;0.80;;
3689;SDS011;1861;50.240;8.596;2023-04-24T02:25:45;1.10;;;1.00;;
3689;SDS011;1861;50.240;8.596;2023-04-24T02:28:14;4.10;;;1.00;;
3689;SDS011;1861;50.240;8.596;2023-04-24T02:30:42;3.27;;;0.90;;
3689;SDS011;1861;50.240;8.596;2023-04-24T02:33:11;1.43;;;1.03;;
3689;SDS011;1861;50.240;8.596;2023-04-24T02:35:39;1.00;;;0.90;;
3689;SDS011;1861;50.240;8.596;2023-04-24T02:38:07;1.30;;;0.97;;
3689;SDS011;1861;50.240;8.596;2023-04-24T02:40:35;1.43;;;1.10;;
3689;SDS011;1861;50.240;8.596;2023-04-24T02:43:04;3.13;;;1.03;;
3689;SDS011;1861;50.240;8.596;2023-04-24T02:45:32;1.10;;;1.00;;
3689;SDS011;1861;50.240;8.596;2023-04-24T02:48:01;3.13;;;1.30;;
3689;SDS011;1861;50.240;8.596;2023-04-24T02:50:30;2.60;;;1.20;;
3689;SDS011;1861;50.240;8.596;2023-04-24T02:52:59;1.40;;;1.30;;
3689;SDS011;1861;50.240;8.596;2023-04-24T02:55:27;4.83;;;1.47;;
3689;SDS011;1861;50.240;8.596;2023-04-24T02:57:55;1.40;;;1.20;;
3689;SDS011;1861;50.240;8.596;2023-04-24T03:00:24;1.63;;;1.20;;
3689;SDS011;1861;50.240;8.596;2023-04-24T03:02:52;1.23;;;1.00;;
3689;SDS011;1861;50.240;8.596;2023-04-24T03:05:20;1.10;;;1.00;;
3689;SDS011;1861;50.240;8.596;2023-04-24T03:07:50;1.70;;;1.07;;
3689;SDS011;1861;50.240;8.596;2023-04-24T03:10:20;1.50;;;0.90;;
3689;SDS011;1861;50.240;8.596;2023-04-24T03:12:49;5.97;;;1.03;;
3689;SDS011;1861;50.240;8.596;2023-04-24T03:15:17;1.20;;;0.90;;
3689;SDS011;1861;50.240;8.596;2023-04-24T03:17:46;1.00;;;0.87;;
3689;SDS011;1861;50.240;8.596;2023-04-24T03:20:14;2.93;;;0.90;;
3689;SDS011;1861;50.240;8.596;2023-04-24T07:54:24;1.57;;;1.47;;
3689;SDS011;1861;50.240;8.596;2023-04-24T07:56:52;1.47;;;1.37;;
3689;SDS011;1861;50.240;8.596;2023-04-24T07:59:20;1.57;;;1.47;;
3689;SDS011;1861;50.240;8.596;2023-04-24T08:01:48;2.23;;;1.10;;
3689;SDS011;1861;50.240;8.596;2023-04-24T08:04:16;1.37;;;1.27;;
3689;SDS011;1861;50.240;8.596;2023-04-24T08:06:45;2.33;;;1.30;;
3689;SDS011;1861;50.240;8.596;2023-04-24T08:09:14;1.33;;;1.23;;
3689;SDS011;1861;50.240;8.596;2023-04-24T08:11:44;4.13;;;2.17;;
3689;SDS011;1861;50.240;8.596;2023-04-24T08:14:12;1.70;;;1.60;;
3689;SDS011;1861;50.240;8.596;2023-04-24T08:16:41;2.30;;;1.37;;
3689;SDS011;1861;50.240;8.596;2023-04-24T08:19:09;2.90;;;1.50;;
3689;SDS011;1861;50.240;8.596;2023-04-24T08:21:37;4.70;;;1.90;;
3689;SDS011;1861;50.240;8.596;2023-04-24T08:24:06;1.53;;;1.40;;
3689;SDS011;1861;50.240;8.596;2023-04-24T08:26:34;1.93;;;1.40;;
3689;SDS011;1861;50.240;8.596;2023-04-24T08:29:04;2.00;;;1.90;;
3689;SDS011;1861;50.240;8.596;2023-04-24T08:31:32;2.37;;;1.30;;
3689;SDS011;1861;50.240;8.596;2023-04-24T08:34:01;1.70;;;1.20;;
3689;SDS011;1861;50.240;8.596;2023-04-24T08:36:29;1.40;;;1.30;;
3689;SDS011;1861;50.240;8.596;2023-04-24T08:39:12;1.20;;;1.10;;
3689;SDS011;1861;50.240;8.596;2023-04-24T08:41:41;1.73;;;1.50;;
3689;SDS011;1861;50.240;8.596;2023-04-24T08:44:13;1.93;;;1.77;;
3689;SDS011;1861;50.240;8.596;2023-04-24T08:46:43;2.23;;;1.60;;
3689;SDS011;1861;50.240;8.596;2023-04-24T08:49:12;1.53;;;1.43;;
3689;SDS011;1861;50.240;8.596;2023-04-24T08:51:42;1.70;;;1.50;;
3689;SDS011;1861;50.240;8.596;2023-04-24T08:54:13;1.87;;;1.77;;
3689;SDS011;1861;50.240;8.596;2023-04-24T08:56:41;2.30;;;1.50;;
3689;SDS011;1861;50.240;8.596;2023-04-24T08:59:12;2.07;;;1.60;;
3689;SDS011;1861;50.240;8.596;2023-04-24T09:01:41;1.53;;;1.37;;
3689;SDS011;1861;50.240;8.596;2023-04-24T09:04:12;2.33;;;1.50;;
3689;SDS011;1861;50.240;8.596;2023-04-24T09:06:44;1.60;;;1.50;;
3689;SDS011;1861;50.240;8.596;2023-04-24T09:09:12;2.80;;;1.80;;
3689;SDS011;1861;50.240;8.596;2023-04-24T09:11:42;1.50;;;1.40;;
3689;SDS011;1861;50.240;8.596;2023-04-24T09:14:10;1.93;;;1.70;;
3689;SDS011;1861;50.240;8.596;2023-04-24T09:16:40;1.77;;;1.40;;
3689;SDS011;1861;50.240;8.596;2023-04-24T09:19:09;1.77;;;1.50;;
3689;SDS011;1861;50.240;8.596;2023-04-24T09:21:37;1.40;;;1.30;;
3689;SDS011;1861;50.240;8.596;2023-04-24T09:24:09;1.40;;;1.20;;
3689;SDS011;1861;50.240;8.596;2023-04-24T09:26:44;2.83;;;1.30;;
3689;SDS011;1861;50.240;8.596;2023-04-24T09:29:15;1.37;;;1.27;;
3689;SDS011;1861;50.240;8.596;2023-04-24T09:31:44;1.73;;;1.63;;
3689;SDS011;1861;50.240;8.596;2023-04-24T09:34:13;1.93;;;1.20;;
3689;SDS011;1861;50.240;8.596;2023-04-24T09:36:41;1.80;;;1.70;;
3689;SDS011;1861;50.240;8.596;2023-04-24T09:39:11;2.33;;;1.60;;
3689;SDS011;1861;50.240;8.596;2023-04-24T09:41:45;1.17;;;1.07;;
3689;SDS011;1861;50.240;8.596;2023-04-24T09:44:16;3.40;;;1.60;;
3689;SDS011;1861;50.240;8.596;2023-04-24T09:46:49;10.63;;;2.17;;
3689;SDS011;1861;50.240;8.596;2023-04-24T09:49:21;1.40;;;1.27;;
3689;SDS011;1861;50.240;8.596;2023-04-24T09:51:49;1.30;;;1.20;;
3689;SDS011;1861;50.240;8.596;2023-04-24T09:54:18;3.63;;;1.43;;
3689;SDS011;1861;50.240;8.596;2023-04-24T09:56:49;2.03;;;1.30;;
3689;SDS011;1861;50.240;8.596;2023-04-24T09:59:19;1.60;;;1.50;;
3689;SDS011;1861;50.240;8.596;2023-04-24T10:01:48;1.40;;;1.30;;
3689;SDS011;1861;50.240;8.596;2023-04-24T10:04:18;1.80;;;1.40;;
3689;SDS011;1861;50.240;8.596;2023-04-24T10:06:48;1.40;;;1.20;;
3689;SDS011;1861;50.240;8.596;2023-04-24T10:09:16;1.10;;;1.00;;
3689;SDS011;1861;50.240;8.596;2023-04-24T10:11:46;1.83;;;1.20;;
3689;SDS011;1861;50.240;8.596;2023-04-24T10:14:17;1.13;;;1.00;;
3689;SDS011;1861;50.240;8.596;2023-04-24T10:16:48;2.10;;;1.20;;
3689;SDS011;1861;50.240;8.596;2023-04-24T10:19:17;1.17;;;1.07;;
3689;SDS011;1861;50.240;8.596;2023-04-24T10:21:46;2.43;;;1.40;;
3689;SDS011;1861;50.240;8.596;2023-04-24T10:24:15;2.23;;;1.10;;
3689;SDS011;1861;50.240;8.596;2023-04-24T10:26:45;1.20;;;1.10;;
3689;SDS011;1861;50.240;8.596;2023-04-24T10:29:16;1.30;;;1.17;;
3689;SDS011;1861;50.240;8.596;2023-04-24T10:31:44;1.17;;;1.00;;
3689;SDS011;1861;50.240;8.596;2023-04-24T10:34:15;1.00;;;1.00;;
3689;SDS011;1861;50.240;8.596;2023-04-24T10:36:45;1.20;;;0.97;;
3689;SDS011;1861;50.240;8.596;2023-04-24T10:39:17;1.93;;;0.80;;
3689;SDS011;1861;50.240;8.596;2023-04-24T10:41:53;1.07;;;0.97;;
3689;SDS011;1861;50.240;8.596;2023-04-24T10:44:24;0.80;;;0.80;;
3689;SDS011;1861;50.240;8.596;2023-04-24T10:46:53;1.10;;;0.83;;
3689;SDS011;1861;50.240;8.596;2023-04-24T10:49:28;1.20;;;0.70;;
3689;SDS011;1861;50.240;8.596;2023-04-24T10:51:59;1.10;;;1.10;;
3689;SDS011;1861;50.240;8.596;2023-04-24T10:54:29;0.87;;;0.67;;
3689;SDS011;1861;50.240;8.596;2023-04-24T11:00:09;0.87;;;0.70;;
3689;SDS011;1861;50.240;8.596;2023-04-24T11:02:41;0.80;;;0.80;;
3689;SDS011;1861;50.240;8.596;2023-04-24T11:05:17;2.10;;;0.67;;
3689;SDS011;1861;50.240;8.596;2023-04-24T11:10:40;0.97;;;0.70;;
3689;SDS011;1861;50.240;8.596;2023-04-24T11:13:13;2.37;;;1.07;;
3689;SDS011;1861;50.240;8.596;2023-04-24T11:15:42;0.70;;;0.60;;
3689;SDS011;1861;50.240;8.596;2023-04-24T11:18:13;0.70;;;0.70;;
3689;SDS011;1861;50.240;8.596;2023-04-24T11:20:44;0.80;;;0.80;;
3689;SDS011;1861;50.240;8.596;2023-04-24T11:23:13;0.90;;;0.80;;
3689;SDS011;1861;50.240;8.596;2023-04-24T11:25:42;2.70;;;0.80;;
3689;SDS011;1861;50.240;8.596;2023-04-24T11:28:14;1.47;;;0.70;;
3689;SDS011;1861;50.240;8.596;2023-04-24T11:30:43;1.23;;;0.80;;
3689;SDS011;1861;50.240;8.596;2023-04-24T11:33:11;1.77;;;1.10;;
3689;SDS011;1861;50.240;8.596;2023-04-24T11:35:48;1.20;;;0.70;;
3689;SDS011;1861;50.240;8.596;2023-04-24T11:38:18;1.17;;;0.97;;
3689;SDS011;1861;50.240;8.596;2023-04-24T11:40:51;1.00;;;0.90;;
3689;SDS011;1861;50.240;8.596;2023-04-24T11:43:19;4.40;;;1.00;;
3689;SDS011;1861;50.240;8.596;2023-04-24T11:45:48;1.03;;;0.93;;
3689;SDS011;1861;50.240;8.596;2023-04-24T11:48:18;1.20;;;0.90;;
3689;SDS011;1861;50.240;8.596;2023-04-24T11:50:50;1.40;;;0.90;;
3689;SDS011;1861;50.240;8.596;2023-04-24T11:53:20;1.63;;;1.03;;
3689;SDS011;1861;50.240;8.596;2023-04-24T11:55:48;1.00;;;0.90;;
3689;SDS011;1861;50.240;8.596;2023-04-24T11:58:16;1.10;;;1.00;;
3689;SDS011;1861;50.240;8.596;2023-04-24T12:00:55;0.87;;;0.80;;
3689;SDS011;1861;50.240;8.596;2023-04-24T12:03:24;2.50;;;0.90;;
3689;SDS011;1861;50.240;8.596;2023-04-24T12:05:54;1.30;;;1.17;;
3689;SDS011;1861;50.240;8.596;2023-04-24T12:08:32;1.27;;;0.97;;
3689;SDS011;1861;50.240;8.596;2023-04-24T12:11:04;0.90;;;0.80;;
3689;SDS011;1861;50.240;8.596;2023-04-24T12:13:34;1.40;;;1.00;;
3689;SDS011;1861;50.240;8.596;2023-04-24T12:16:03;1.83;;;1.20;;
3689;SDS011;1861;50.240;8.596;2023-04-24T12:18:32;3.57;;;1.10;;
3689;SDS011;1861;50.240;8.596;2023-04-24T12:21:15;1.37;;;1.27;;
3689;SDS011;1861;50.240;8.596;2023-04-24T12:23:48;1.37;;;1.10;;
3689;SDS011;1861;50.240;8.596;2023-04-24T12:26:17;1.10;;;0.90;;
3689;SDS011;1861;50.240;8.596;2023-04-24T12:28:46;1.53;;;1.40;;
3689;SDS011;1861;50.240;8.596;2023-04-24T12:31:16;1.67;;;1.33;;
3689;SDS011;1861;50.240;8.596;2023-04-24T12:33:44;2.20;;;1.33;;
3689;SDS011;1861;50.240;8.596;2023-04-24T12:36:12;2.53;;;1.50;;
3689;SDS011;1861;50.240;8.596;2023-04-24T12:38:43;3.03;;;1.50;;
3689;SDS011;1861;50.240;8.596;2023-04-24T12:41:13;2.20;;;1.30;;
3689;SDS011;1861;50.240;8.596;2023-04-24T12:43:51;1.90;;;1.63;;
3689;SDS011;1861;50.240;8.596;2023-04-24T12:46:19;1.63;;;1.53;;
3689;SDS011;1861;50.240;8.596;2023-04-24T12:48:48;2.27;;;1.50;;
3689;SDS011;1861;50.240;8.596;2023-04-24T12:51:16;2.10;;;1.60;;
3689;SDS011;1861;50.240;8.596;2023-04-24T12:53:46;1.73;;;1.63;;
3689;SDS011;1861;50.240;8.596;2023-04-24T12:56:14;2.70;;;1.43;;
3689;SDS011;1861;50.240;8.596;2023-04-24T12:58:42;1.73;;;1.47;;
3689;SDS011;1861;50.240;8.596;2023-04-24T13:01:10;1.87;;;1.63;;
3689;SDS011;1861;50.240;8.596;2023-04-24T13:03:38;2.10;;;1.90;;
3689;SDS011;1861;50.240;8.596;2023-04-24T13:06:07;2.70;;;1.70;;
3689;SDS011;1861;50.240;8.596;2023-04-24T13:08:35;1.50;;;1.40;;
3689;SDS011;1861;50.240;8.596;2023-04-24T13:11:05;3.10;;;2.03;;
3689;SDS011;1861;50.240;8.596;2023-04-24T13:13:33;1.50;;;1.40;;
3689;SDS011;1861;50.240;8.596;2023-04-24T13:16:01;4.07;;;1.63;;
3689;SDS011;1861;50.240;8.596;2023-04-24T13:18:29;1.93;;;1.40;;
3689;SDS011;1861;50.240;8.596;2023-04-24T13:20:57;3.33;;;1.83;;
3689;SDS011;1861;50.240;8.596;2023-04-24T13:23:25;2.80;;;1.30;;
3689;SDS011;1861;50.240;8.596;2023-04-24T13:25:54;2.87;;;1.70;;
3689;SDS011;1861;50.240;8.596;2023-04-24T13:28:25;3.27;;;2.17;;
3689;SDS011;1861;50.240;8.596;2023-04-24T13:30:53;1.50;;;1.40;;
3689;SDS011;1861;50.240;8.596;2023-04-24T13:33:21;9.73;;;2.60;;
3689;SDS011;1861;50.240;8.596;2023-04-24T13:35:49;2.37;;;1.93;;
3689;SDS011;1861;50.240;8.596;2023-04-24T13:38:17;3.20;;;1.80;;
3689;SDS011;1861;50.240;8.596;2023-04-24T13:40:47;1.83;;;1.63;;
3689;SDS011;1861;50.240;8.596;2023-04-24T13:43:16;2.03;;;1.73;;
3689;SDS011;1861;50.240;8.596;2023-04-24T13:45:45;2.70;;;1.87;;
3689;SDS011;1861;50.240;8.596;2023-04-24T13:48:13;3.63;;;2.20;;
3689;SDS011;1861;50.240;8.596;2023-04-24T13:50:42;3.70;;;2.13;;
3689;SDS011;1861;50.240;8.596;2023-04-24T13:53:10;4.83;;;2.80;;
3689;SDS011;1861;50.240;8.596;2023-04-24T13:55:38;6.33;;;2.37;;
3689;SDS011;1861;50.240;8.596;2023-04-24T13:58:06;2.83;;;2.53;;
3689;SDS011;1861;50.240;8.596;2023-04-24T14:00:34;4.40;;;2.57;;
3689;SDS011;1861;50.240;8.596;2023-04-24T14:03:04;2.63;;;2.10;;
3689;SDS011;1861;50.240;8.596;2023-04-24T14:05:32;5.33;;;2.30;;
3689;SDS011;1861;50.240;8.596;2023-04-24T14:08:04;3.40;;;2.43;;
3689;SDS011;1861;50.240;8.596;2023-04-24T14:10:32;3.00;;;2.37;;
3689;SDS011;1861;50.240;8.596;2023-04-24T14:13:00;3.67;;;2.40;;
3689;SDS011;1861;50.240;8.596;2023-04-24T14:15:28;4.90;;;1.70;;
3689;SDS011;1861;50.240;8.596;2023-04-24T14:17:57;3.47;;;2.10;;
3689;SDS011;1861;50.240;8.596;2023-04-24T14:20:26;3.30;;;2.23;;
3689;SDS011;1861;50.240;8.596;2023-04-24T14:22:54;3.50;;;2.13;;
3689;SDS011;1861;50.240;8.596;2023-04-24T14:25:25;2.97;;;2.00;;
3689;SDS011;1861;50.240;8.596;2023-04-24T14:27:53;2.90;;;2.13;;
3689;SDS011;1861;50.240;8.596;2023-04-24T14:30:21;3.57;;;2.10;;
3689;SDS011;1861;50.240;8.596;2023-04-24T14:32:49;2.73;;;1.90;;
3689;SDS011;1861;50.240;8.596;2023-04-24T14:35:18;3.17;;;2.07;;
3689;SDS011;1861;50.240;8.596;2023-04-24T14:37:47;4.37;;;1.80;;
3689;SDS011;1861;50.240;8.596;2023-04-24T14:40:16;3.40;;;1.80;;
3689;SDS011;1861;50.240;8.596;2023-04-24T14:43:04;5.90;;;2.90;;
3689;SDS011;1861;50.240;8.596;2023-04-24T14:45:33;6.93;;;2.33;;
3689;SDS011;1861;50.240;8.596;2023-04-24T14:48:01;5.50;;;2.80;;
3689;SDS011;1861;50.240;8.596;2023-04-24T14:50:29;4.23;;;2.80;;
3689;SDS011;1861;50.240;8.596;2023-04-24T14:52:59;5.70;;;2.10;;
3689;SDS011;1861;50.240;8.596;2023-04-24T14:55:28;2.43;;;2.23;;
3689;SDS011;1861;50.240;8.596;2023-04-24T14:57:56;5.30;;;2.13;;
3689;SDS011;1861;50.240;8.596;2023-04-24T15:00:24;3.53;;;2.63;;
3689;SDS011;1861;50.240;8.596;2023-04-24T15:02:52;3.83;;;2.50;;
3689;SDS011;1861;50.240;8.596;2023-04-24T15:05:22;3.50;;;2.53;;
3689;SDS011;1861;50.240;8.596;2023-04-24T15:07:51;5.03;;;2.10;;
3689;SDS011;1861;50.240;8.596;2023-04-24T15:10:20;4.30;;;1.83;;
3689;SDS011;1861;50.240;8.596;2023-04-24T15:12:50;4.10;;;2.53;;
3689;SDS011;1861;50.240;8.596;2023-04-24T15:15:18;2.80;;;2.03;;
3689;SDS011;1861;50.240;8.596;2023-04-24T15:17:48;3.47;;;2.33;;
3689;SDS011;1861;50.240;8.596;2023-04-24T15:20:16;2.87;;;1.70;;
3689;SDS011;1861;50.240;8.596;2023-04-24T15:22:45;2.90;;;1.97;;
3689;SDS011;1861;50.240;8.596;2023-04-24T15:25:13;3.00;;;2.33;;
3689;SDS011;1861;50.240;8.596;2023-04-24T15:27:43;3.37;;;2.03;;
3689;SDS011;1861;50.240;8.596;2023-04-24T15:30:11;3.30;;;2.20;;
3689;SDS011;1861;50.240;8.596;2023-04-24T15:32:40;2.60;;;2.10;;
3689;SDS011;1861;50.240;8.596;2023-04-24T15:35:09;2.90;;;2.10;;
3689;SDS011;1861;50.240;8.596;2023-04-24T15:37:38;3.20;;;2.23;;
3689;SDS011;1861;50.240;8.596;2023-04-24T15:40:06;3.27;;;1.90;;
3689;SDS011;1861;50.240;8.596;2023-04-24T15:42:37;1.83;;;1.67;;
3689;SDS011;1861;50.240;8.596;2023-04-24T15:45:07;2.80;;;2.23;;
3689;SDS011;1861;50.240;8.596;2023-04-24T15:47:36;3.00;;;1.80;;
3689;SDS011;1861;50.240;8.596;2023-04-24T15:50:04;9.23;;;2.20;;
3689;SDS011;1861;50.240;8.596;2023-04-24T15:52:34;8.33;;;2.73;;
3689;SDS011;1861;50.240;8.596;2023-04-24T15:55:02;2.67;;;2.47;;
3689;SDS011;1861;50.240;8.596;2023-04-24T15:57:31;2.57;;;1.93;;
3689;SDS011;1861;50.240;8.596;2023-04-24T15:59:59;3.10;;;2.07;;
3689;SDS011;1861;50.240;8.596;2023-04-24T16:02:38;2.73;;;2.20;;
3689;SDS011;1861;50.240;8.596;2023-04-24T16:05:06;2.40;;;2.20;;
3689;SDS011;1861;50.240;8.596;2023-04-24T16:07:36;2.83;;;2.03;;
3689;SDS011;1861;50.240;8.596;2023-04-24T16:10:05;2.20;;;2.00;;
3689;SDS011;1861;50.240;8.596;2023-04-24T16:12:33;4.80;;;2.37;;
3689;SDS011;1861;50.240;8.596;2023-04-24T16:15:02;3.00;;;2.40;;
3689;SDS011;1861;50.240;8.596;2023-04-24T16:17:31;3.20;;;2.23;;
3689;SDS011;1861;50.240;8.596;2023-04-24T16:20:00;5.50;;;2.60;;
3689;SDS011;1861;50.240;8.596;2023-04-24T16:22:28;3.10;;;2.20;;
3689;SDS011;1861;50.240;8.596;2023-04-24T16:24:57;18.50;;;9.23;;
3689;SDS011;1861;50.240;8.596;2023-04-24T16:27:25;9.30;;;3.77;;
3689;SDS011;1861;50.240;8.596;2023-04-24T16:29:53;7.43;;;5.07;;
3689;SDS011;1861;50.240;8.596;2023-04-24T16:32:22;3.90;;;3.10;;
3689;SDS011;1861;50.240;8.596;2023-04-24T16:34:50;3.40;;;2.03;;
3689;SDS011;1861;50.240;8.596;2023-04-24T16:37:20;2.30;;;1.97;;
3689;SDS011;1861;50.240;8.596;2023-04-24T16:39:48;5.23;;;1.93;;
3689;SDS011;1861;50.240;8.596;2023-04-24T16:42:16;6.07;;;2.33;;
3689;SDS011;1861;50.240;8.596;2023-04-24T16:44:44;6.57;;;2.70;;
3689;SDS011;1861;50.240;8.596;2023-04-24T16:47:13;2.53;;;1.60;;
3689;SDS011;1861;50.240;8.596;2023-04-24T16:49:41;5.07;;;2.00;;
3689;SDS011;1861;50.240;8.596;2023-04-24T16:52:09;3.60;;;1.70;;
3689;SDS011;1861;50.240;8.596;2023-04-24T16:54:38;4.13;;;2.40;;
3689;SDS011;1861;50.240;8.596;2023-04-24T16:57:06;4.47;;;2.40;;
3689;SDS011;1861;50.240;8.596;2023-04-24T16:59:34;3.00;;;2.23;;
3689;SDS011;1861;50.240;8.596;2023-04-24T17:02:02;2.80;;;2.07;;
3689;SDS011;1861;50.240;8.596;2023-04-24T17:04:30;6.00;;;3.23;;
3689;SDS011;1861;50.240;8.596;2023-04-24T17:07:01;2.57;;;2.37;;
3689;SDS011;1861;50.240;8.596;2023-04-24T17:09:29;2.40;;;2.20;;
3689;SDS011;1861;50.240;8.596;2023-04-24T17:11:58;5.47;;;2.60;;
3689;SDS011;1861;50.240;8.596;2023-04-24T17:14:27;3.43;;;1.70;;
3689;SDS011;1861;50.240;8.596;2023-04-24T17:16:55;4.03;;;2.27;;
3689;SDS011;1861;50.240;8.596;2023-04-24T17:19:24;2.70;;;2.13;;
3689;SDS011;1861;50.240;8.596;2023-04-24T17:21:52;4.83;;;2.53;;
3689;SDS011;1861;50.240;8.596;2023-04-24T17:24:21;5.07;;;2.37;;
3689;SDS011;1861;50.240;8.596;2023-04-24T17:26:49;3.90;;;2.20;;
3689;SDS011;1861;50.240;8.596;2023-04-24T17:29:23;2.63;;;2.07;;
3689;SDS011;1861;50.240;8.596;2023-04-24T17:31:51;2.23;;;1.90;;
3689;SDS011;1861;50.240;8.596;2023-04-24T17:34:19;6.33;;;1.90;;
3689;SDS011;1861;50.240;8.596;2023-04-24T17:36:47;4.70;;;1.70;;
3689;SDS011;1861;50.240;8.596;2023-04-24T17:39:15;2.20;;;2.00;;
3689;SDS011;1861;50.240;8.596;2023-04-24T17:41:43;2.83;;;1.93;;
3689;SDS011;1861;50.240;8.596;2023-04-24T17:44:11;2.37;;;2.17;;
3689;SDS011;1861;50.240;8.596;2023-04-24T17:46:41;2.83;;;2.30;;
3689;SDS011;1861;50.240;8.596;2023-04-24T17:49:09;3.43;;;2.50;;
3689;SDS011;1861;50.240;8.596;2023-04-24T17:51:37;2.70;;;1.93;;
3689;SDS011;1861;50.240;8.596;2023-04-24T17:54:05;2.13;;;1.90;;
3689;SDS011;1861;50.240;8.596;2023-04-24T17:56:33;3.30;;;2.30;;
3689;SDS011;1861;50.240;8.596;2023-04-24T17:59:01;5.17;;;2.40;;
3689;SDS011;1861;50.240;8.596;2023-04-24T18:01:29;4.67;;;2.57;;
3689;SDS011;1861;50.240;8.596;2023-04-24T18:03:59;2.50;;;2.30;;
3689;SDS011;1861;50.240;8.596;2023-04-24T18:06:27;5.23;;;2.90;;
3689;SDS011;1861;50.240;8.596;2023-04-24T18:08:55;2.83;;;2.10;;
3689;SDS011;1861;50.240;8.596;2023-04-24T18:11:23;4.60;;;2.10;;
3689;SDS011;1861;50.240;8.596;2023-04-24T18:13:51;3.30;;;2.10;;
3689;SDS011;1861;50.240;8.596;2023-04-24T18:16:19;2.20;;;1.90;;
3689;SDS011;1861;50.240;8.596;2023-04-24T18:18:51;3.10;;;1.83;;
3689;SDS011;1861;50.240;8.596;2023-04-24T18:21:21;3.03;;;2.07;;
3689;SDS011;1861;50.240;8.596;2023-04-24T18:23:50;3.77;;;2.00;;
3689;SDS011;1861;50.240;8.596;2023-04-24T18:26:18;2.47;;;2.00;;
3689;SDS011;1861;50.240;8.596;2023-04-24T18:28:46;2.20;;;1.80;;
3689;SDS011;1861;50.240;8.596;2023-04-24T18:31:15;3.73;;;2.20;;
3689;SDS011;1861;50.240;8.596;2023-04-24T18:33:43;3.43;;;2.10;;
3689;SDS011;1861;50.240;8.596;2023-04-24T18:36:11;4.83;;;2.27;;
3689;SDS011;1861;50.240;8.596;2023-04-24T18:38:40;2.03;;;1.73;;
3689;SDS011;1861;50.240;8.596;2023-04-24T18:41:09;3.53;;;1.90;;
3689;SDS011;1861;50.240;8.596;2023-04-24T18:43:39;1.60;;;1.50;;
3689;SDS011;1861;50.240;8.596;2023-04-24T18:46:07;3.67;;;2.30;;
3689;SDS011;1861;50.240;8.596;2023-04-24T18:48:35;1.83;;;1.70;;
3689;SDS011;1861;50.240;8.596;2023-04-24T18:51:03;2.27;;;2.07;;
3689;SDS011;1861;50.240;8.596;2023-04-24T18:53:31;4.07;;;2.50;;
3689;SDS011;1861;50.240;8.596;2023-04-24T18:56:00;3.50;;;2.30;;
3689;SDS011;1861;50.240;8.596;2023-04-24T18:58:28;4.50;;;2.63;;
3689;SDS011;1861;50.240;8.596;2023-04-24T19:00:56;3.37;;;2.30;;
3689;SDS011;1861;50.240;8.596;2023-04-24T19:03:24;2.70;;;2.20;;
3689;SDS011;1861;50.240;8.596;2023-04-24T19:05:53;2.80;;;2.20;;
3689;SDS011;1861;50.240;8.596;2023-04-24T19:08:21;4.90;;;2.30;;
3689;SDS011;1861;50.240;8.596;2023-04-24T19:10:49;2.80;;;2.50;;
3689;SDS011;1861;50.240;8.596;2023-04-24T19:13:19;3.10;;;2.77;;
3689;SDS011;1861;50.240;8.596;2023-04-24T19:15:47;4.63;;;2.40;;
3689;SDS011;1861;50.240;8.596;2023-04-24T19:18:15;3.90;;;2.97;;
3689;SDS011;1861;50.240;8.596;2023-04-24T19:20:43;2.93;;;2.10;;
3689;SDS011;1861;50.240;8.596;2023-04-24T19:23:11;8.30;;;2.40;;
3689;SDS011;1861;50.240;8.596;2023-04-24T19:25:39;3.17;;;2.40;;
3689;SDS011;1861;50.240;8.596;2023-04-24T19:28:07;2.53;;;2.17;;
3689;SDS011;1861;50.240;8.596;2023-04-24T19:30:37;4.07;;;2.70;;
3689;SDS011;1861;50.240;8.596;2023-04-24T19:33:06;2.63;;;2.30;;
3689;SDS011;1861;50.240;8.596;2023-04-24T19:35:34;2.67;;;2.43;;
3689;SDS011;1861;50.240;8.596;2023-04-24T19:38:03;3.50;;;2.30;;
3689;SDS011;1861;50.240;8.596;2023-04-24T19:40:31;3.80;;;2.47;;
3689;SDS011;1861;50.240;8.596;2023-04-24T19:42:59;6.90;;;2.20;;
3689;SDS011;1861;50.240;8.596;2023-04-24T19:45:27;3.27;;;2.00;;
3689;SDS011;1861;50.240;8.596;2023-04-24T19:47:56;6.90;;;3.13;;
3689;SDS011;1861;50.240;8.596;2023-04-24T19:50:25;2.77;;;2.50;;
3689;SDS011;1861;50.240;8.596;2023-04-24T19:52:53;3.67;;;2.30;;
3689;SDS011;1861;50.240;8.596;2023-04-24T19:55:21;4.80;;;2.60;;
3689;SDS011;1861;50.240;8.596;2023-04-24T19:57:49;2.37;;;2.17;;
3689;SDS011;1861;50.240;8.596;2023-04-24T20:00:17;10.80;;;3.50;;
3689;SDS011;1861;50.240;8.596;2023-04-24T20:02:46;5.60;;;3.43;;
3689;SDS011;1861;50.240;8.596;2023-04-24T20:05:15;3.73;;;3.03;;